Time;durP1;ratioP1;P1;durP2;ratioP2;P2;SDS_P1;SDS_P2;PMS_P1;PMS_P2;Temp;Humidity;BMP_temperature;BMP_pressure;BME280_temperature;BME280_humidity;BME280_pressure;Samples;Min_cycle;Max_cycle;Signal;HPM_P1;HPM_P2
2023/06/05 00:01:37;;;;;;;6.07;5.57;;;20.80;72.80;;;;;;5031397;28;20041;-74
2023/06/05 00:04:03;;;;;;;6.35;5.30;;;20.80;73.00;;;;;;5032396;28;20029;-75
2023/06/05 00:06:30;;;;;;;6.30;5.80;;;20.80;72.70;;;;;;5032026;28;20041;-77
2023/06/05 00:08:57;;;;;;;6.07;5.57;;;20.80;72.70;;;;;;5032406;28;20382;-74
2023/06/05 00:11:24;;;;;;;6.55;6.07;;;20.70;73.20;;;;;;5032142;28;20037;-74
2023/06/05 00:13:50;;;;;;;5.82;5.35;;;20.50;73.80;;;;;;5032044;28;20390;-74
2023/06/05 00:16:16;;;;;;;6.97;5.13;;;20.50;73.70;;;;;;5031224;28;20045;-74
2023/06/05 00:18:43;;;;;;;6.05;5.55;;;20.60;73.70;;;;;;5032190;28;20022;-74
2023/06/05 00:21:09;;;;;;;5.60;5.13;;;20.50;74.00;;;;;;5031394;28;20046;-74
2023/06/05 00:23:36;;;;;;;5.90;5.40;;;20.30;74.30;;;;;;5032129;28;20034;-74
2023/06/05 00:26:02;;;;;;;5.70;5.28;;;20.40;74.40;;;;;;5031906;28;20375;-74
2023/06/05 00:28:28;;;;;;;5.95;5.45;;;20.30;74.40;;;;;;5032216;28;20036;-73
2023/06/05 00:30:54;;;;;;;5.78;5.38;;;20.30;74.80;;;;;;5031139;28;20402;-74
2023/06/05 00:33:20;;;;;;;5.72;5.22;;;20.30;74.90;;;;;;5018183;28;20038;-74
2023/06/05 00:35:46;;;;;;;5.22;4.82;;;20.10;75.30;;;;;;5017229;28;20049;-74
2023/06/05 00:38:12;;;;;;;5.68;5.10;;;20.10;75.40;;;;;;5032046;28;20030;-75
2023/06/05 00:40:38;;;;;;;5.90;4.70;;;20.10;75.60;;;;;;5031684;28;20030;-75
2023/06/05 00:43:05;;;;;;;8.27;5.20;;;20.10;75.40;;;;;;5032060;28;20033;-74
2023/06/05 00:45:31;;;;;;;5.38;4.97;;;20.10;75.30;;;;;;5030727;28;20033;-74
2023/06/05 00:47:58;;;;;;;5.70;5.07;;;20.10;75.50;;;;;;5041980;28;20064;-74
2023/06/05 00:50:24;;;;;;;5.43;5.03;;;20.00;75.40;;;;;;5049394;28;20034;-74
2023/06/05 00:52:50;;;;;;;6.30;4.82;;;19.90;75.50;;;;;;5030867;28;20026;-74
2023/06/05 00:55:17;;;;;;;5.18;4.78;;;19.90;76.20;;;;;;5029726;28;20037;-74
2023/06/05 00:57:44;;;;;;;5.38;4.90;;;19.80;76.10;;;;;;5034534;28;20442;-74
2023/06/05 01:00:12;;;;;;;5.35;4.85;;;19.80;76.50;;;;;;5032564;28;20061;-74
2023/06/05 01:02:39;;;;;;;5.82;4.93;;;19.70;76.70;;;;;;5035598;28;20037;-74
2023/06/05 01:05:06;;;;;;;5.90;4.80;;;19.70;76.60;;;;;;5035741;28;20045;-74
2023/06/05 01:07:33;;;;;;;5.82;5.15;;;19.60;77.00;;;;;;5035163;28;20033;-74
2023/06/05 01:10:03;;;;;;;6.13;5.53;;;19.50;77.30;;;;;;5034300;28;20052;-74
2023/06/05 01:12:39;;;;;;;7.05;6.35;;;19.40;77.40;;;;;;5035136;28;20033;-73
2023/06/05 01:15:05;;;;;;;6.47;5.88;;;19.30;77.90;;;;;;5033976;28;20040;-74
2023/06/05 01:17:34;;;;;;;6.70;5.75;;;19.40;78.00;;;;;;5035003;28;20041;-74
2023/06/05 01:20:03;;;;;;;6.38;5.78;;;19.40;77.80;;;;;;5034052;28;20029;-74
2023/06/05 01:22:30;;;;;;;6.45;5.78;;;19.50;77.80;;;;;;5034896;28;20041;-73
2023/06/05 01:24:57;;;;;;;6.22;5.40;;;19.40;77.80;;;;;;5034188;28;20025;-74
2023/06/05 01:27:43;;;;;;;5.70;5.00;;;19.30;78.10;;;;;;5034725;28;20038;-74
2023/06/05 01:30:16;;;;;;;6.07;5.47;;;19.20;78.20;;;;;;5033177;28;20025;-74
2023/06/05 01:32:53;;;;;;;5.53;5.10;;;19.10;78.70;;;;;;5033650;28;20038;-74
2023/06/05 01:35:20;;;;;;;5.53;5.10;;;19.10;78.80;;;;;;5033339;28;20041;-74
2023/06/05 01:37:48;;;;;;;5.20;4.70;;;19.00;79.10;;;;;;5066749;28;20034;-74
2023/06/05 01:40:19;;;;;;;4.95;4.55;;;19.10;79.20;;;;;;5034190;28;20037;-75
2023/06/05 01:42:45;;;;;;;5.35;4.85;;;19.10;79.00;;;;;;5033253;28;20029;-74
2023/06/05 01:45:12;;;;;;;5.38;4.88;;;19.30;78.70;;;;;;5032755;28;20030;-74
2023/06/05 01:47:38;;;;;;;4.75;4.45;;;19.20;78.60;;;;;;5041082;28;20057;-74
2023/06/05 01:50:05;;;;;;;5.85;4.80;;;19.30;78.40;;;;;;5054500;28;20025;-74
2023/06/05 01:52:33;;;;;;;5.07;4.68;;;19.10;78.80;;;;;;5034755;28;20045;-74
2023/06/05 01:54:59;;;;;;;7.28;4.82;;;19.00;80.00;;;;;;5034613;28;20025;-74
2023/06/05 01:57:29;;;;;;;5.88;5.32;;;18.90;79.50;;;;;;5033695;28;20048;-74
2023/06/05 01:59:55;;;;;;;7.50;4.85;;;19.00;79.50;;;;;;5032692;28;20044;-74
2023/06/05 02:02:21;;;;;;;5.10;4.70;;;19.10;78.90;;;;;;5030962;28;20025;-74
2023/06/05 02:04:48;;;;;;;5.25;4.78;;;19.10;78.80;;;;;;5026522;28;20034;-75
2023/06/05 02:07:14;;;;;;;5.22;4.82;;;19.00;79.10;;;;;;5025326;28;20561;-74
2023/06/05 02:09:41;;;;;;;15.55;5.10;;;18.90;79.60;;;;;;5030951;28;20034;-75
2023/06/05 02:12:07;;;;;;;5.30;4.80;;;19.00;79.60;;;;;;5031188;28;20509;-74
2023/06/05 02:14:37;;;;;;;8.05;4.80;;;19.00;79.50;;;;;;5031691;28;20029;-74
2023/06/05 02:17:06;;;;;;;5.20;4.70;;;19.00;79.60;;;;;;5031971;28;20037;-74
2023/06/05 02:19:33;;;;;;;6.18;4.40;;;18.80;80.20;;;;;;5031829;28;20029;-74
2023/06/05 02:21:59;;;;;;;5.00;4.60;;;18.70;80.60;;;;;;5032536;28;20402;-74
2023/06/05 02:24:26;;;;;;;4.80;4.30;;;18.80;80.50;;;;;;5032693;28;20029;-74
2023/06/05 02:26:52;;;;;;;6.03;4.57;;;18.50;81.20;;;;;;5032089;28;20048;-75
2023/06/05 02:29:18;;;;;;;5.10;4.70;;;18.40;81.80;;;;;;5032733;28;20045;-75
2023/06/05 02:31:44;;;;;;;5.18;4.78;;;18.50;82.00;;;;;;5031784;28;20040;-74
2023/06/05 02:34:11;;;;;;;5.50;4.97;;;18.60;81.80;;;;;;5032206;28;20056;-74
2023/06/05 02:36:38;;;;;;;4.78;4.40;;;18.60;82.10;;;;;;5035544;28;20045;-74
2023/06/05 02:39:07;;;;;;;6.00;5.07;;;18.50;82.50;;;;;;5033810;28;20033;-74
2023/06/05 02:41:33;;;;;;;5.20;4.90;;;18.50;82.70;;;;;;5033069;28;20029;-75
2023/06/05 02:43:59;;;;;;;5.63;4.95;;;18.50;82.80;;;;;;5033524;28;20022;-75
2023/06/05 02:46:25;;;;;;;5.82;4.80;;;18.40;83.00;;;;;;5032245;28;20045;-74
2023/06/05 02:48:52;;;;;;;5.47;4.97;;;18.40;83.20;;;;;;5051275;28;20041;-74
2023/06/05 02:51:18;;;;;;;5.63;5.10;;;18.50;83.30;;;;;;5042282;28;20033;-74
2023/06/05 02:53:44;;;;;;;5.32;4.90;;;18.50;83.50;;;;;;5033571;28;20029;-74
2023/06/05 02:56:10;;;;;;;5.35;4.85;;;18.40;83.90;;;;;;5032821;28;20521;-74
2023/06/05 02:58:37;;;;;;;5.82;5.10;;;18.40;84.10;;;;;;5033144;28;20037;-74
2023/06/05 03:01:03;;;;;;;6.40;5.32;;;18.40;84.40;;;;;;5032698;28;20040;-74
2023/06/05 03:03:30;;;;;;;5.45;4.93;;;18.30;84.50;;;;;;5033181;28;20037;-75
2023/06/05 03:06:03;;;;;;;5.50;5.00;;;18.20;84.90;;;;;;5032872;28;20041;-77
2023/06/05 03:08:33;;;;;;;5.85;5.10;;;18.10;86.10;;;;;;5033015;28;20386;-74
2023/06/05 03:11:00;;;;;;;5.57;5.07;;;17.90;86.40;;;;;;5032601;28;20029;-77
2023/06/05 03:13:26;;;;;;;5.57;5.00;;;18.10;86.20;;;;;;5032620;28;20049;-74
2023/06/05 03:15:56;;;;;;;6.05;5.45;;;18.20;86.00;;;;;;5032479;28;20044;-75
2023/06/05 03:18:24;;;;;;;5.45;4.95;;;18.30;86.10;;;;;;5031536;28;20037;-74
2023/06/05 03:20:54;;;;;;;5.57;5.07;;;18.10;86.80;;;;;;5031905;28;20449;-75
2023/06/05 03:23:30;;;;;;;5.40;5.00;;;17.90;87.40;;;;;;5033105;28;20048;-74
2023/06/05 03:25:56;;;;;;;5.50;5.00;;;18.10;87.50;;;;;;5032094;28;20481;-75
2023/06/05 03:28:23;;;;;;;5.20;4.80;;;18.00;87.80;;;;;;5032970;28;20462;-74
2023/06/05 03:30:49;;;;;;;5.45;5.05;;;17.80;89.00;;;;;;5030978;28;20044;-76
2023/06/05 03:33:17;;;;;;;5.57;5.07;;;17.70;89.50;;;;;;5032721;28;20025;-74
2023/06/05 03:35:46;;;;;;;5.75;5.22;;;17.80;89.70;;;;;;5032388;28;20430;-74
2023/06/05 03:38:12;;;;;;;6.20;5.40;;;17.80;90.00;;;;;;5031564;28;20036;-77
2023/06/05 03:40:39;;;;;;;5.65;5.10;;;17.80;90.00;;;;;;5032417;28;20378;-75
2023/06/05 03:43:06;;;;;;;5.72;5.25;;;17.90;90.00;;;;;;5032827;28;20046;-74
2023/06/05 03:45:33;;;;;;;6.47;5.72;;;18.00;89.90;;;;;;5031928;28;20028;-74
2023/06/05 03:47:59;;;;;;;5.50;5.03;;;17.80;90.20;;;;;;5041269;28;20044;-74
2023/06/05 03:50:28;;;;;;;5.78;5.32;;;17.70;90.60;;;;;;5052335;28;20028;-74
2023/06/05 03:53:01;;;;;;;6.30;5.35;;;17.50;91.10;;;;;;5052156;28;20025;-74
2023/06/05 03:55:45;;;;;;;5.82;4.80;;;17.50;91.50;;;;;;5051512;28;20350;-77
2023/06/05 03:58:15;;;;;;;7.07;5.07;;;17.50;91.60;;;;;;5032379;28;20387;-77
2023/06/05 04:00:45;;;;;;;5.88;4.93;;;17.50;91.70;;;;;;5031665;28;20041;-77
2023/06/05 04:03:12;;;;;;;5.47;4.97;;;17.70;91.50;;;;;;5032392;28;20041;-74
2023/06/05 04:05:38;;;;;;;5.18;4.68;;;17.80;91.40;;;;;;5031884;28;20268;-75
2023/06/05 04:08:05;;;;;;;7.75;4.95;;;17.70;91.70;;;;;;5031798;28;20041;-74
2023/06/05 04:10:31;;;;;;;5.80;4.95;;;17.50;92.20;;;;;;5032014;28;20402;-74
2023/06/05 04:12:58;;;;;;;7.32;5.25;;;17.40;92.70;;;;;;5031252;28;20025;-74
2023/06/05 04:15:24;;;;;;;5.50;4.97;;;17.40;92.90;;;;;;5029847;28;20374;-74
2023/06/05 04:17:50;;;;;;;8.15;5.03;;;17.40;93.20;;;;;;5030461;28;20037;-75
2023/06/05 04:20:16;;;;;;;6.78;4.93;;;17.30;93.50;;;;;;5032094;28;20549;-74
2023/06/05 04:22:42;;;;;;;6.00;4.95;;;17.10;94.10;;;;;;5031860;28;20025;-74
2023/06/05 04:25:12;;;;;;;6.90;4.60;;;17.10;94.40;;;;;;5031074;28;20073;-76
2023/06/05 04:27:39;;;;;;;8.82;4.97;;;17.10;94.70;;;;;;5031010;28;20049;-74
2023/06/05 04:30:06;;;;;;;5.95;5.35;;;17.10;94.80;;;;;;5031650;28;20041;-76
2023/06/05 04:32:36;;;;;;;5.60;4.90;;;17.10;95.10;;;;;;5034071;28;20033;-76
2023/06/05 04:35:04;;;;;;;5.30;4.78;;;17.10;95.20;;;;;;5036202;28;20033;-75
2023/06/05 04:37:30;;;;;;;7.10;5.30;;;17.10;95.30;;;;;;5037058;28;20497;-77
2023/06/05 04:39:56;;;;;;;5.40;4.90;;;17.20;95.50;;;;;;5034043;28;20037;-74
2023/06/05 04:42:22;;;;;;;7.57;4.65;;;17.20;95.70;;;;;;5035696;28;20567;-77
2023/06/05 04:45:07;;;;;;;7.18;4.47;;;17.20;96.00;;;;;;5036059;28;20041;-76
2023/06/05 04:47:33;;;;;;;7.35;4.32;;;17.00;96.40;;;;;;5021750;28;20049;-77
2023/06/05 04:50:03;;;;;;;11.13;4.65;;;17.00;96.70;;;;;;5036103;28;20486;-76
2023/06/05 04:52:32;;;;;;;8.07;4.85;;;16.90;97.20;;;;;;5035845;28;20046;-76
2023/06/05 04:55:02;;;;;;;5.63;4.40;;;16.90;97.50;;;;;;5035709;28;20021;-77
2023/06/05 04:57:29;;;;;;;6.28;4.80;;;16.90;97.80;;;;;;5035374;28;20049;-76
2023/06/05 04:59:56;;;;;;;8.13;4.75;;;16.90;98.00;;;;;;5034218;28;20363;-76
2023/06/05 05:02:23;;;;;;;6.25;4.43;;;16.90;98.30;;;;;;5035010;28;20491;-76
2023/06/05 05:04:49;;;;;;;8.75;4.70;;;16.80;98.70;;;;;;5035621;28;20025;-77
2023/06/05 05:07:16;;;;;;;5.38;4.88;;;16.90;98.70;;;;;;5034918;28;20041;-76
2023/06/05 05:09:45;;;;;;;6.35;4.80;;;16.90;99.10;;;;;;5035619;28;20402;-76
2023/06/05 05:12:11;;;;;;;7.72;4.78;;;17.10;99.10;;;;;;5035129;28;20048;-76
2023/06/05 05:14:37;;;;;;;7.45;4.90;;;17.20;98.80;;;;;;5035311;28;20032;-76
2023/06/05 05:17:04;;;;;;;5.20;4.50;;;17.30;98.80;;;;;;5034693;28;20486;-76
2023/06/05 05:19:30;;;;;;;5.47;4.90;;;17.50;98.70;;;;;;5035167;28;20029;-74
2023/06/05 05:21:56;;;;;;;7.90;4.97;;;17.80;98.20;;;;;;5034513;28;20444;-73
2023/06/05 05:24:24;;;;;;;6.97;4.68;;;17.90;98.00;;;;;;5035216;28;20036;-74
2023/06/05 05:26:51;;;;;;;9.13;4.80;;;17.90;98.10;;;;;;5034692;28;20056;-76
2023/06/05 05:29:17;;;;;;;11.57;5.40;;;17.90;98.20;;;;;;5035104;28;20032;-76
2023/06/05 05:31:44;;;;;;;8.75;4.80;;;17.90;98.40;;;;;;5034340;28;20033;-73
2023/06/05 05:34:10;;;;;;;8.07;4.63;;;18.00;98.20;;;;;;5034692;28;20470;-76
2023/06/05 05:36:36;;;;;;;6.28;4.63;;;18.20;98.20;;;;;;5034314;28;20041;-74
2023/06/05 05:39:04;;;;;;;8.10;4.82;;;18.20;98.00;;;;;;5034699;28;20044;-73
2023/06/05 05:41:30;;;;;;;6.70;4.72;;;18.40;98.00;;;;;;5034472;28;20060;-74
2023/06/05 05:43:56;;;;;;;7.72;4.85;;;18.40;97.90;;;;;;5033882;28;20041;-74
2023/06/05 05:46:22;;;;;;;11.38;5.38;;;18.50;97.80;;;;;;5033721;28;20037;-73
2023/06/05 05:48:48;;;;;;;8.15;4.72;;;18.50;97.80;;;;;;5051429;28;20051;-74
2023/06/05 05:51:15;;;;;;;6.38;5.63;;;18.60;97.80;;;;;;5045368;28;20030;-74
2023/06/05 05:53:41;;;;;;;6.03;4.97;;;18.50;97.80;;;;;;5034927;28;20038;-77
2023/06/05 05:56:07;;;;;;;5.43;4.88;;;18.50;98.20;;;;;;5034353;28;20033;-73
2023/06/05 05:58:33;;;;;;;7.78;5.00;;;18.70;97.90;;;;;;5034452;28;20040;-76
2023/06/05 06:01:00;;;;;;;8.27;5.22;;;18.60;97.70;;;;;;5032356;28;20034;-73
2023/06/05 06:03:26;;;;;;;10.02;5.10;;;18.70;97.90;;;;;;5034237;28;20041;-77
2023/06/05 06:05:53;;;;;;;7.40;5.80;;;18.60;97.90;;;;;;5034445;28;20041;-76
2023/06/05 06:08:20;;;;;;;8.85;4.90;;;18.70;97.90;;;;;;5032758;28;20046;-76
2023/06/05 06:10:46;;;;;;;9.98;5.53;;;18.60;98.00;;;;;;5033894;28;20045;-77
2023/06/05 06:13:12;;;;;;;10.07;5.25;;;18.80;97.90;;;;;;5034329;28;20044;-73
2023/06/05 06:15:39;;;;;;;10.55;4.82;;;19.10;97.70;;;;;;5033554;28;20033;-73
2023/06/05 06:18:08;;;;;;;8.57;4.97;;;19.10;97.40;;;;;;5033726;28;20041;-74
2023/06/05 06:20:34;;;;;;;7.03;4.88;;;19.20;97.30;;;;;;5033864;28;20033;-73
2023/06/05 06:23:02;;;;;;;11.30;5.35;;;19.30;96.90;;;;;;5033953;28;20026;-73
2023/06/05 06:25:31;;;;;;;9.65;5.13;;;19.40;97.10;;;;;;5033716;28;20041;-73
2023/06/05 06:27:59;;;;;;;10.38;5.45;;;19.50;96.70;;;;;;5032266;28;20050;-73
2023/06/05 06:30:27;;;;;;;6.68;4.82;;;19.60;96.50;;;;;;5033091;28;20030;-74
2023/06/05 06:32:57;;;;;;;10.73;4.80;;;19.60;96.30;;;;;;5033691;28;20402;-73
2023/06/05 06:35:24;;;;;;;8.80;4.72;;;19.60;96.30;;;;;;5032400;28;20038;-74
2023/06/05 06:37:53;;;;;;;7.88;5.22;;;19.70;96.40;;;;;;5033770;28;20053;-73
2023/06/05 06:40:20;;;;;;;12.48;5.03;;;19.80;96.30;;;;;;5031991;28;20048;-73
2023/06/05 06:42:46;;;;;;;9.02;5.43;;;19.90;96.10;;;;;;5033760;28;20036;-73
2023/06/05 06:45:12;;;;;;;8.80;5.25;;;20.00;96.60;;;;;;5031785;28;20033;-74
2023/06/05 06:47:38;;;;;;;8.15;5.20;;;20.30;95.90;;;;;;5040687;28;20049;-74
2023/06/05 06:50:04;;;;;;;8.52;5.20;;;20.50;95.40;;;;;;5053789;28;20382;-73
2023/06/05 06:52:31;;;;;;;5.60;4.95;;;20.50;95.30;;;;;;5033897;28;20026;-73
2023/06/05 06:54:57;;;;;;;7.97;4.90;;;20.50;94.90;;;;;;5033233;28;20033;-73
2023/06/05 06:57:23;;;;;;;11.27;5.68;;;20.40;95.30;;;;;;5033161;28;20040;-74
2023/06/05 06:59:49;;;;;;;11.90;5.28;;;20.50;95.50;;;;;;5033475;28;20037;-74
2023/06/05 07:02:19;;;;;;;12.27;5.45;;;20.40;95.20;;;;;;5031978;28;20037;-73
2023/06/05 07:04:46;;;;;;;5.60;5.07;;;20.70;95.10;;;;;;5031980;28;20048;-73
2023/06/05 07:07:16;;;;;;;6.75;6.00;;;20.90;94.90;;;;;;5033069;28;20050;-73
2023/06/05 07:09:43;;;;;;;7.55;5.90;;;20.90;94.10;;;;;;5033088;28;20505;-74
2023/06/05 07:12:11;;;;;;;10.60;5.80;;;21.00;94.00;;;;;;5032900;28;20038;-74
2023/06/05 07:14:37;;;;;;;11.07;6.15;;;21.00;93.80;;;;;;5031091;28;20040;-73
2023/06/05 07:17:03;;;;;;;6.40;5.80;;;20.90;94.20;;;;;;5032119;28;20037;-73
2023/06/05 07:19:30;;;;;;;9.30;5.85;;;21.00;93.70;;;;;;5032993;28;20021;-74
2023/06/05 07:22:01;;;;;;;6.68;5.85;;;21.00;93.70;;;;;;5032784;28;20385;-73
2023/06/05 07:24:28;;;;;;;6.15;5.35;;;21.30;93.60;;;;;;5032822;28;20511;-73
2023/06/05 07:26:55;;;;;;;6.07;5.18;;;21.30;93.30;;;;;;5032661;28;20041;-73
2023/06/05 07:29:24;;;;;;;10.00;5.95;;;21.40;94.00;;;;;;5032678;28;20038;-73
2023/06/05 07:31:51;;;;;;;8.38;6.70;;;21.50;93.00;;;;;;5031688;28;20498;-73
2023/06/05 07:34:20;;;;;;;8.32;6.95;;;21.50;93.00;;;;;;5031548;28;20029;-73
2023/06/05 07:36:47;;;;;;;8.82;6.60;;;21.70;92.50;;;;;;5032243;28;20049;-73
2023/06/05 07:39:14;;;;;;;8.90;6.22;;;21.70;92.40;;;;;;5032695;28;20026;-73
2023/06/05 07:41:40;;;;;;;8.68;6.55;;;21.90;92.20;;;;;;5032282;28;20050;-76
2023/06/05 07:44:15;;;;;;;8.32;7.40;;;22.00;92.00;;;;;;5032747;28;20041;-75
2023/06/05 07:46:42;;;;;;;7.55;6.95;;;21.90;91.70;;;;;;5031405;28;20037;-76
2023/06/05 07:49:09;;;;;;;8.43;7.57;;;22.10;91.80;;;;;;5052566;28;20020;-74
2023/06/05 07:51:38;;;;;;;10.63;8.27;;;22.30;91.20;;;;;;5040379;28;20041;-76
2023/06/05 07:54:08;;;;;;;9.98;8.40;;;22.30;91.50;;;;;;5032349;28;20034;-75
2023/06/05 07:56:34;;;;;;;9.50;8.70;;;22.40;91.00;;;;;;5032412;28;20450;-76
2023/06/05 07:59:02;;;;;;;9.20;8.32;;;22.50;91.10;;;;;;5032369;28;20038;-76
2023/06/05 08:01:36;;;;;;;8.88;7.97;;;22.50;90.90;;;;;;5030298;28;20037;-76
2023/06/05 08:04:10;;;;;;;10.50;8.38;;;22.40;90.80;;;;;;5032403;28;20038;-76
2023/06/05 08:06:40;;;;;;;9.75;8.75;;;22.30;90.90;;;;;;5031658;28;20052;-75
2023/06/05 08:09:09;;;;;;;11.10;7.28;;;22.50;90.90;;;;;;5032425;28;20459;-75
2023/06/05 08:11:38;;;;;;;10.35;8.13;;;22.50;91.40;;;;;;5032275;28;20029;-75
2023/06/05 08:14:07;;;;;;;9.88;8.88;;;22.70;90.90;;;;;;5031927;28;20033;-75
2023/06/05 08:16:34;;;;;;;11.57;9.13;;;22.80;90.40;;;;;;5031583;28;20045;-75
2023/06/05 08:19:01;;;;;;;10.20;9.40;;;23.00;90.40;;;;;;5032252;28;20414;-75
2023/06/05 08:21:27;;;;;;;12.38;9.80;;;23.00;89.90;;;;;;5031785;28;20052;-75
2023/06/05 08:23:53;;;;;;;9.40;8.52;;;23.30;90.20;;;;;;5032266;28;20040;-76
2023/06/05 08:26:20;;;;;;;10.30;9.30;;;23.50;90.40;;;;;;5031930;28;20029;-76
2023/06/05 08:28:46;;;;;;;8.98;8.10;;;23.50;88.80;;;;;;5030263;28;20029;-75
2023/06/05 08:31:12;;;;;;;10.75;9.90;;;23.60;90.20;;;;;;5031290;28;20398;-75
2023/06/05 08:33:39;;;;;;;10.20;9.30;;;23.60;88.10;;;;;;5031820;28;20486;-75
2023/06/05 08:36:05;;;;;;;13.98;10.50;;;23.60;87.40;;;;;;5030033;28;20525;-76
2023/06/05 08:38:32;;;;;;;11.95;10.75;;;23.60;88.20;;;;;;5031864;28;20025;-75
2023/06/05 08:41:02;;;;;;;11.10;10.10;;;23.60;87.80;;;;;;5031821;28;20025;-75
2023/06/05 08:43:28;;;;;;;10.77;9.85;;;23.80;87.50;;;;;;5031741;28;20033;-75
2023/06/05 08:45:56;;;;;;;12.13;9.95;;;23.90;86.80;;;;;;5027351;28;20029;-75
2023/06/05 08:48:22;;;;;;;10.68;9.75;;;24.00;87.70;;;;;;5044859;28;20048;-76
2023/06/05 08:50:48;;;;;;;10.80;9.80;;;24.30;87.20;;;;;;5044940;28;20092;-75
2023/06/05 08:53:16;;;;;;;11.15;9.32;;;24.30;86.40;;;;;;5030585;28;20040;-76
2023/06/05 08:55:45;;;;;;;9.15;8.10;;;24.10;87.20;;;;;;5031864;28;20048;-76
2023/06/05 08:58:14;;;;;;;9.57;8.90;;;24.20;88.50;;;;;;5030335;28;20026;-76
2023/06/05 09:00:41;;;;;;;9.60;8.70;;;24.20;87.40;;;;;;5029513;28;20034;-75
2023/06/05 09:03:12;;;;;;;14.63;8.95;;;24.10;88.10;;;;;;5030753;28;20033;-76
2023/06/05 09:05:38;;;;;;;10.32;9.52;;;24.10;87.80;;;;;;5031623;28;20033;-75
2023/06/05 09:08:04;;;;;;;11.10;9.90;;;24.30;87.00;;;;;;5046864;28;20033;-75
2023/06/05 09:10:30;;;;;;;11.43;10.45;;;24.40;86.60;;;;;;5031096;28;20394;-76
2023/06/05 09:12:58;;;;;;;10.18;9.27;;;24.50;85.80;;;;;;5031377;28;20492;-75
2023/06/05 09:15:30;;;;;;;9.95;9.05;;;24.60;86.50;;;;;;5030894;28;20042;-76
2023/06/05 09:18:09;;;;;;;11.98;10.35;;;24.60;86.20;;;;;;5034450;28;20028;-75
2023/06/05 09:20:42;;;;;;;11.77;10.85;;;24.60;85.30;;;;;;5034669;28;20046;-76
2023/06/05 09:23:26;;;;;;;11.75;10.50;;;24.80;85.20;;;;;;5035321;28;20021;-74
2023/06/05 09:25:52;;;;;;;11.15;10.20;;;24.80;85.30;;;;;;5035035;28;20044;-75
2023/06/05 09:28:19;;;;;;;10.73;9.82;;;24.80;84.40;;;;;;5034725;28;20029;-75
2023/06/05 09:31:02;;;;;;;12.05;11.15;;;25.00;84.90;;;;;;5034457;28;20045;-76
2023/06/05 09:33:35;;;;;;;12.32;11.23;;;25.20;84.20;;;;;;5035345;28;20049;-76
2023/06/05 09:36:05;;;;;;;11.43;10.65;;;25.10;83.30;;;;;;5032107;28;20498;-76
2023/06/05 09:38:31;;;;;;;12.32;11.23;;;25.10;82.60;;;;;;5032079;28;20029;-75
2023/06/05 09:41:10;;;;;;;11.65;10.63;;;25.20;82.50;;;;;;5028534;28;20045;-77
2023/06/05 09:43:37;;;;;;;11.63;10.77;;;25.20;83.20;;;;;;5029551;28;20037;-77
2023/06/05 09:46:10;;;;;;;11.63;10.82;;;25.40;83.20;;;;;;5023137;28;20036;-76
2023/06/05 09:48:36;;;;;;;11.82;10.77;;;25.70;82.60;;;;;;5044278;28;20044;-76
2023/06/05 09:51:10;;;;;;;12.00;10.55;;;25.70;81.80;;;;;;5042192;28;20045;-76
2023/06/05 09:53:40;;;;;;;14.57;10.88;;;25.70;81.90;;;;;;5034226;28;20037;-76
2023/06/05 09:56:07;;;;;;;11.70;10.75;;;25.50;81.70;;;;;;5032815;28;20030;-76
2023/06/05 09:58:33;;;;;;;12.43;11.25;;;25.40;81.30;;;;;;5033270;28;20034;-76
2023/06/05 10:01:00;;;;;;;13.18;12.07;;;25.60;83.50;;;;;;5016305;28;20406;-76
2023/06/05 10:03:26;;;;;;;11.45;10.63;;;25.90;80.80;;;;;;5033307;28;20467;-76
2023/06/05 10:05:53;;;;;;;11.85;10.60;;;26.10;82.00;;;;;;5033146;28;20037;-76
2023/06/05 10:08:19;;;;;;;11.90;10.73;;;26.30;82.50;;;;;;5033052;28;20127;-77
2023/06/05 10:10:45;;;;;;;11.63;10.73;;;26.40;81.60;;;;;;5015767;28;20049;-76
2023/06/05 10:13:11;;;;;;;12.68;10.70;;;26.40;80.50;;;;;;5034313;28;20375;-76
2023/06/05 10:15:38;;;;;;;12.23;11.00;;;26.50;80.90;;;;;;5033485;28;20061;-75
2023/06/05 10:18:05;;;;;;;11.55;10.50;;;26.60;80.60;;;;;;5016452;28;20043;-75
2023/06/05 10:20:31;;;;;;;15.57;11.00;;;26.60;81.10;;;;;;5032217;28;20044;-76
2023/06/05 10:22:57;;;;;;;12.75;11.68;;;26.60;81.10;;;;;;5032838;28;20029;-76
2023/06/05 10:25:24;;;;;;;13.13;12.00;;;26.80;79.90;;;;;;5032250;28;20041;-76
2023/06/05 10:28:11;;;;;;;12.50;11.50;;;26.80;79.50;;;;;;5033882;28;20049;-75
2023/06/05 10:31:02;;;;;;;12.23;11.23;;;26.90;79.40;;;;;;5033039;28;20486;-76
2023/06/05 10:33:28;;;;;;;;;;;26.90;79.80;;;;;;5032888;28;20041;-76
2023/06/05 10:36:19;;;;;;;12.95;11.88;;;26.90;80.80;;;;;;5033330;28;19999;-75
2023/06/05 10:38:45;;;;;;;14.43;11.82;;;27.10;78.50;;;;;;5041075;28;20064;-75
2023/06/05 10:41:11;;;;;;;13.15;11.50;;;27.00;78.00;;;;;;5037149;28;20041;-75
2023/06/05 10:43:48;;;;;;;12.60;11.60;;;26.80;77.70;;;;;;5032184;28;20402;-76
2023/06/05 10:46:33;;;;;;;12.65;11.65;;;26.70;78.40;;;;;;5033220;28;20489;-75
2023/06/05 10:49:10;;;;;;;13.02;12.02;;;26.70;77.50;;;;;;5052139;28;20389;-75
2023/06/05 10:51:43;;;;;;;15.73;11.60;;;26.90;76.70;;;;;;5056225;28;20037;-75
2023/06/05 10:54:16;;;;;;;12.63;11.40;;;26.80;77.00;;;;;;5013479;28;20064;-75
2023/06/05 10:56:55;;;;;;;13.45;12.30;;;27.00;77.10;;;;;;5026369;28;20034;-75
2023/06/05 10:59:22;;;;;;;12.73;11.80;;;27.10;76.40;;;;;;5033554;28;20042;-75
2023/06/05 11:02:11;;;;;;;13.40;12.30;;;27.20;75.30;;;;;;5032323;28;20037;-75
2023/06/05 11:04:46;;;;;;;13.23;11.82;;;27.30;75.80;;;;;;5013727;28;20042;-76
2023/06/05 11:07:18;;;;;;;13.82;12.60;;;27.20;75.50;;;;;;5029979;28;20037;-75
2023/06/05 11:10:02;;;;;;;12.35;11.55;;;27.30;75.50;;;;;;5032495;28;20038;-75
2023/06/05 11:12:43;;;;;;;12.68;11.75;;;27.30;75.60;;;;;;5032698;28;20041;-76
2023/06/05 11:15:09;;;;;;;;;;;27.30;75.40;;;;;;5032612;28;20044;-76
2023/06/05 11:17:42;;;;;;;13.15;12.05;;;27.30;75.20;;;;;;5014011;28;19901;-76
2023/06/05 11:20:24;;;;;;;12.80;11.82;;;27.50;75.40;;;;;;5013300;28;20026;-75
2023/06/05 11:22:53;;;;;;;12.88;11.98;;;27.60;75.50;;;;;;5032616;28;20052;-76
2023/06/05 11:25:26;;;;;;;14.02;12.55;;;27.60;74.50;;;;;;5032622;28;20462;-76
2023/06/05 11:27:55;;;;;;;14.20;12.88;;;27.60;75.40;;;;;;5032517;28;20494;-75
2023/06/05 11:30:24;;;;;;;13.07;11.88;;;27.70;74.80;;;;;;5032441;28;20038;-75
2023/06/05 11:32:52;;;;;;;12.75;11.65;;;27.60;75.10;;;;;;5031336;28;20474;-75
2023/06/05 11:35:22;;;;;;;13.25;12.20;;;27.80;73.20;;;;;;5032505;28;20022;-76
2023/06/05 11:37:48;;;;;;;13.55;12.38;;;27.90;74.10;;;;;;5032302;28;20370;-75
2023/06/05 11:40:24;;;;;;;13.23;12.32;;;28.10;74.10;;;;;;5046394;28;20033;-76
2023/06/05 11:42:50;;;;;;;13.45;12.18;;;28.10;74.30;;;;;;5032526;28;20390;-75
2023/06/05 11:45:16;;;;;;;12.95;11.95;;;27.80;73.60;;;;;;5030833;28;20037;-76
2023/06/05 11:47:42;;;;;;;14.07;12.88;;;27.70;73.60;;;;;;5040346;28;20478;-76
2023/06/05 11:50:09;;;;;;;13.90;12.85;;;27.60;74.00;;;;;;5052005;28;20041;-75
2023/06/05 11:52:35;;;;;;;13.88;12.85;;;27.70;74.90;;;;;;5012687;28;20033;-76
2023/06/05 11:55:21;;;;;;;13.50;12.27;;;28.00;74.20;;;;;;5012948;28;20034;-75
2023/06/05 11:57:48;;;;;;;13.20;11.98;;;28.20;72.40;;;;;;5027443;28;20394;-76
2023/06/05 12:00:15;;;;;;;13.85;12.30;;;28.00;71.60;;;;;;5012194;28;20395;-75
2023/06/05 12:02:44;;;;;;;13.55;12.23;;;28.10;71.60;;;;;;5032433;28;20026;-76
2023/06/05 12:05:10;;;;;;;13.38;11.98;;;28.10;71.60;;;;;;5032133;28;20034;-75
2023/06/05 12:07:37;;;;;;;13.68;12.40;;;28.10;70.80;;;;;;5032135;28;20038;-75
2023/06/05 12:10:07;;;;;;;12.90;11.77;;;28.20;72.20;;;;;;5030754;28;20041;-75
2023/06/05 12:12:34;;;;;;;12.88;11.98;;;28.30;72.30;;;;;;5031991;28;20029;-75
2023/06/05 12:15:20;;;;;;;13.50;12.35;;;28.30;70.50;;;;;;5031222;28;20033;-76
2023/06/05 12:17:54;;;;;;;13.40;12.10;;;28.40;70.30;;;;;;5031027;28;20034;-75
2023/06/05 12:20:20;;;;;;;13.30;12.30;;;28.50;70.80;;;;;;5031686;28;20033;-76
2023/06/05 12:22:46;;;;;;;12.88;11.98;;;28.60;70.50;;;;;;5032223;28;20036;-75
2023/06/05 12:25:18;;;;;;;13.60;12.45;;;28.60;69.60;;;;;;5032034;28;20026;-75
2023/06/05 12:27:47;;;;;;;12.50;11.30;;;28.80;69.70;;;;;;5030792;28;20036;-75
2023/06/05 12:30:15;;;;;;;12.23;11.00;;;28.80;69.30;;;;;;5031689;28;20487;-75
2023/06/05 12:32:43;;;;;;;13.70;12.70;;;28.60;68.00;;;;;;5032197;28;20060;-76
2023/06/05 12:35:19;;;;;;;13.20;12.13;;;28.70;71.60;;;;;;5029925;28;20049;-75
2023/06/05 12:37:47;;;;;;;12.35;11.40;;;28.90;68.70;;;;;;5025871;28;20044;-75
2023/06/05 12:40:13;;;;;;;12.90;11.55;;;28.80;68.40;;;;;;5032339;28;20049;-76
2023/06/05 12:42:40;;;;;;;12.50;11.60;;;28.40;66.90;;;;;;5032437;28;20065;-75
2023/06/05 12:45:07;;;;;;;13.48;12.38;;;28.40;67.50;;;;;;5031861;28;20045;-75
2023/06/05 12:47:33;;;;;;;13.45;11.82;;;28.50;66.60;;;;;;5038195;28;20051;-75